createdAt,value
2018-09-30T00:02:18.170Z,6.90
2018-09-30T00:04:48.142Z,5.97
2018-09-30T00:07:18.074Z,6.37
2018-09-30T00:09:48.053Z,6.87
2018-09-30T00:12:17.983Z,7.10
2018-09-30T00:14:47.957Z,7.00
2018-09-30T00:17:18.111Z,5.97
2018-09-30T00:19:50.875Z,5.53
2018-09-30T00:22:20.846Z,5.87
2018-09-30T00:24:56.215Z,5.87
2018-09-30T00:27:26.266Z,6.33
2018-09-30T00:29:56.198Z,6.72
2018-09-30T00:32:26.166Z,5.12
2018-09-30T00:34:56.248Z,5.62
2018-09-30T00:37:26.165Z,5.22
2018-09-30T00:39:56.164Z,5.67
2018-09-30T00:42:26.127Z,5.47
2018-09-30T00:44:56.051Z,5.67
2018-09-30T00:47:26.139Z,5.97
2018-09-30T00:49:56.142Z,5.62
2018-09-30T00:52:26.054Z,6.55
2018-09-30T00:54:56.020Z,5.83
2018-09-30T00:57:25.982Z,6.03
2018-09-30T00:59:55.924Z,5.20
2018-09-30T01:02:25.881Z,5.55
2018-09-30T01:04:55.981Z,6.65
2018-09-30T01:07:25.907Z,7.22
2018-09-30T01:09:55.839Z,8.88
2018-09-30T01:12:26.062Z,10.95
2018-09-30T01:14:56.131Z,11.60
2018-09-30T01:17:26.098Z,12.03
2018-09-30T01:19:56.014Z,11.40
2018-09-30T01:22:25.954Z,12.33
2018-09-30T01:24:55.871Z,13.72
2018-09-30T01:27:32.489Z,13.90
2018-09-30T01:30:02.592Z,14.90
2018-09-30T01:32:32.522Z,14.55
2018-09-30T01:35:02.468Z,14.55
2018-09-30T01:37:32.468Z,11.68
2018-09-30T01:40:02.394Z,11.60
2018-09-30T01:42:32.355Z,9.95
2018-09-30T01:45:02.303Z,12.05
2018-09-30T01:47:32.262Z,11.95
2018-09-30T01:50:02.186Z,15.45
2018-09-30T01:52:51.680Z,14.68
2018-09-30T01:55:22.169Z,14.47
2018-09-30T01:57:52.240Z,14.05
2018-09-30T02:00:22.655Z,15.28
2018-09-30T02:02:52.783Z,16.00
2018-09-30T02:05:22.774Z,14.58
2018-09-30T02:07:52.725Z,14.10
2018-09-30T02:10:22.690Z,10.58
2018-09-30T02:12:52.657Z,10.45
2018-09-30T02:15:22.585Z,10.00
2018-09-30T02:17:52.603Z,13.03
2018-09-30T02:20:22.539Z,10.35
2018-09-30T02:22:52.518Z,12.53
2018-09-30T02:25:22.810Z,13.48
2018-09-30T02:27:52.746Z,13.65
2018-09-30T02:30:22.731Z,12.25
2018-09-30T02:32:52.713Z,13.15
2018-09-30T02:35:22.638Z,13.08
2018-09-30T02:37:52.630Z,14.40
2018-09-30T02:40:22.922Z,14.65
2018-09-30T02:42:52.886Z,13.40
2018-09-30T02:45:23.032Z,13.35
2018-09-30T02:47:52.962Z,13.90
2018-09-30T02:50:23.254Z,14.70
2018-09-30T02:52:53.181Z,13.62
2018-09-30T02:55:23.170Z,13.03
2018-09-30T02:57:53.143Z,13.03
2018-09-30T03:00:23.110Z,12.58
2018-09-30T03:02:53.398Z,12.25
2018-09-30T03:05:23.387Z,11.80
2018-09-30T03:07:58.672Z,12.75
2018-09-30T03:10:28.634Z,12.10
2018-09-30T03:12:58.795Z,11.08
2018-09-30T03:15:29.005Z,11.88
2018-09-30T03:17:58.944Z,11.95
2018-09-30T03:20:28.928Z,12.43
2018-09-30T03:22:59.779Z,12.85
2018-09-30T03:25:29.730Z,11.63
2018-09-30T03:27:59.658Z,11.40
2018-09-30T03:30:29.578Z,10.15
2018-09-30T03:32:59.591Z,11.50
2018-09-30T03:35:29.539Z,10.00
2018-09-30T03:38:00.203Z,8.48
2018-09-30T03:40:30.287Z,9.78
2018-09-30T03:43:00.249Z,10.20
2018-09-30T03:45:30.587Z,8.80
2018-09-30T03:48:00.542Z,7.50
2018-09-30T03:50:30.510Z,6.42
2018-09-30T03:53:00.447Z,6.80
2018-09-30T03:55:30.385Z,6.00
2018-09-30T03:58:00.346Z,6.05
2018-09-30T04:00:30.314Z,6.92
2018-09-30T04:03:00.362Z,6.28
2018-09-30T04:05:30.307Z,5.00
2018-09-30T04:08:00.572Z,6.03
2018-09-30T04:10:30.535Z,6.05
2018-09-30T04:13:00.461Z,6.10
2018-09-30T04:15:30.394Z,6.58
2018-09-30T04:18:00.315Z,6.70
2018-09-30T04:20:30.326Z,5.62
2018-09-30T04:23:00.218Z,5.47
2018-09-30T04:25:30.143Z,5.92
2018-09-30T04:28:00.069Z,4.70
2018-09-30T04:30:29.982Z,5.70
2018-09-30T04:32:59.921Z,6.20
2018-09-30T04:35:30.900Z,5.92
2018-09-30T04:38:00.819Z,6.22
2018-09-30T04:40:31.090Z,5.65
2018-09-30T04:43:00.982Z,5.20
2018-09-30T04:45:31.214Z,5.87
2018-09-30T04:48:01.159Z,6.40
2018-09-30T04:50:31.257Z,5.37
2018-09-30T04:53:01.295Z,5.95
2018-09-30T04:55:31.238Z,5.90
2018-09-30T04:58:01.158Z,5.10
2018-09-30T05:00:31.204Z,6.03
2018-09-30T05:03:01.140Z,5.97
2018-09-30T05:05:31.474Z,5.05
2018-09-30T05:08:01.562Z,6.85
2018-09-30T05:10:31.521Z,5.45
2018-09-30T05:13:01.441Z,5.85
2018-09-30T05:15:31.325Z,5.42
2018-09-30T05:18:01.412Z,5.35
2018-09-30T05:20:31.562Z,5.50
2018-09-30T05:23:01.821Z,7.22
2018-09-30T05:25:31.765Z,5.25
2018-09-30T05:28:01.673Z,7.17
2018-09-30T05:30:31.574Z,4.75
2018-09-30T05:33:01.607Z,6.37
2018-09-30T05:35:31.623Z,6.62
2018-09-30T05:38:01.642Z,6.53
2018-09-30T05:40:32.094Z,6.50
2018-09-30T05:43:02.158Z,6.17
2018-09-30T05:45:32.203Z,7.08
2018-09-30T05:48:02.111Z,5.85
2018-09-30T05:50:32.134Z,5.65
2018-09-30T05:53:02.050Z,6.15
2018-09-30T05:55:31.982Z,5.87
2018-09-30T05:58:02.234Z,5.70
2018-09-30T06:00:32.241Z,5.72
2018-09-30T06:03:02.237Z,5.30
2018-09-30T06:05:32.166Z,5.30
2018-09-30T06:08:02.081Z,5.20
2018-09-30T06:10:32.290Z,5.42
2018-09-30T06:13:02.197Z,5.45
2018-09-30T06:15:32.193Z,5.03
2018-09-30T06:18:02.606Z,4.80
2018-09-30T06:20:32.599Z,4.40
2018-09-30T06:23:02.486Z,4.70
2018-09-30T06:25:32.394Z,4.65
2018-09-30T06:28:02.345Z,3.60
2018-09-30T06:30:32.287Z,5.67
2018-09-30T06:33:02.614Z,5.40
2018-09-30T06:35:32.491Z,5.58
2018-09-30T06:38:02.421Z,6.00
2018-09-30T06:40:32.435Z,6.25
2018-09-30T06:43:02.317Z,5.95
2018-09-30T06:45:32.372Z,5.37
2018-09-30T06:48:02.785Z,4.25
2018-09-30T06:50:33.110Z,4.83
2018-09-30T06:53:03.270Z,5.00
2018-09-30T06:55:33.247Z,4.10
2018-09-30T06:58:03.272Z,4.60
2018-09-30T07:00:33.355Z,5.00
2018-09-30T07:03:03.270Z,5.35
2018-09-30T07:05:33.201Z,5.30
2018-09-30T07:08:03.082Z,4.92
2018-09-30T07:10:33.310Z,4.78
2018-09-30T07:13:03.259Z,4.40
2018-09-30T07:15:33.293Z,4.45
2018-09-30T07:18:03.193Z,4.15
2018-09-30T07:20:33.219Z,4.08
2018-09-30T07:23:03.133Z,4.55
2018-09-30T07:25:33.078Z,5.62
2018-09-30T07:28:03.046Z,5.15
2018-09-30T07:30:32.938Z,4.60
2018-09-30T07:33:02.911Z,5.30
2018-09-30T07:35:32.929Z,4.30
2018-09-30T07:38:02.842Z,4.33
2018-09-30T07:40:32.905Z,4.33
2018-09-30T07:43:03.181Z,4.30
2018-09-30T07:45:33.142Z,3.80
2018-09-30T07:48:03.399Z,4.12
2018-09-30T07:50:34.050Z,4.12
2018-09-30T07:53:03.976Z,2.90
2018-09-30T07:55:33.901Z,3.90
2018-09-30T07:58:03.841Z,3.92
2018-09-30T08:00:33.828Z,3.62
2018-09-30T08:03:03.786Z,3.72
2018-09-30T08:05:33.849Z,3.60
2018-09-30T08:08:05.290Z,3.33
2018-09-30T08:10:35.333Z,2.90
2018-09-30T08:13:05.277Z,3.72
2018-09-30T08:15:35.277Z,3.50
2018-09-30T08:18:05.453Z,3.00
2018-09-30T08:20:35.379Z,2.90
2018-09-30T08:23:05.377Z,2.40
2018-09-30T08:25:36.402Z,2.53
2018-09-30T08:28:06.704Z,2.60
2018-09-30T08:30:36.705Z,2.83
2018-09-30T08:33:06.643Z,2.60
2018-09-30T08:35:36.526Z,2.60
2018-09-30T08:38:12.074Z,2.33
2018-09-30T08:40:47.618Z,2.40
2018-09-30T08:43:17.590Z,2.27
2018-09-30T08:45:47.561Z,2.13
2018-09-30T08:48:17.557Z,2.50
2018-09-30T08:50:47.469Z,2.80
2018-09-30T08:53:18.290Z,2.20
2018-09-30T08:55:48.500Z,2.80
2018-09-30T08:58:18.758Z,1.83
2018-09-30T09:00:48.690Z,2.03
2018-09-30T09:03:18.948Z,2.47
2018-09-30T09:05:48.985Z,2.23
2018-09-30T09:08:18.930Z,1.90
2018-09-30T09:10:48.916Z,2.47
2018-09-30T09:13:18.859Z,2.37
2018-09-30T09:15:48.814Z,2.00
2018-09-30T09:18:18.728Z,2.17
2018-09-30T09:20:48.767Z,2.33
2018-09-30T09:23:18.753Z,1.77
2018-09-30T09:25:48.708Z,2.30
2018-09-30T09:28:18.711Z,2.20
2018-09-30T09:30:49.003Z,2.20
2018-09-30T09:33:18.914Z,2.20
2018-09-30T09:35:48.866Z,1.80
2018-09-30T09:38:19.272Z,1.70
2018-09-30T09:40:49.190Z,1.70
2018-09-30T09:43:19.371Z,1.57
2018-09-30T09:45:49.611Z,19.33
2018-09-30T09:48:19.535Z,10.47
2018-09-30T09:50:49.465Z,1.57
2018-09-30T09:53:19.425Z,2.43
2018-09-30T09:55:49.385Z,2.33
2018-09-30T09:58:19.346Z,2.00
2018-09-30T10:00:49.647Z,1.47
2018-09-30T10:03:19.612Z,1.83
2018-09-30T10:05:50.010Z,1.70
2018-09-30T10:08:20.189Z,1.73
2018-09-30T10:10:50.266Z,1.60
2018-09-30T10:13:20.339Z,1.80
2018-09-30T10:15:50.589Z,2.00
2018-09-30T10:18:20.973Z,1.43
2018-09-30T10:20:50.925Z,1.93
2018-09-30T10:23:20.855Z,1.90
2018-09-30T10:25:50.746Z,1.60
2018-09-30T10:28:20.689Z,1.50
2018-09-30T10:30:50.702Z,1.63
2018-09-30T10:33:20.771Z,1.93
2018-09-30T10:35:50.703Z,1.90
2018-09-30T10:38:20.632Z,1.47
2018-09-30T10:40:50.629Z,1.70
2018-09-30T10:43:20.601Z,1.73
2018-09-30T10:45:50.565Z,2.37
2018-09-30T10:48:20.543Z,1.40
2018-09-30T10:50:50.546Z,1.93
2018-09-30T10:53:20.931Z,2.07
2018-09-30T10:55:50.872Z,1.63
2018-09-30T10:58:20.765Z,1.70
2018-09-30T11:00:50.766Z,1.50
2018-09-30T11:03:20.735Z,1.70
2018-09-30T11:05:50.793Z,1.60
2018-09-30T11:08:20.719Z,1.30
2018-09-30T11:10:50.679Z,1.93
2018-09-30T11:13:20.677Z,2.13
2018-09-30T11:15:50.788Z,1.80
2018-09-30T11:18:20.689Z,1.67
2018-09-30T11:20:50.619Z,1.93
2018-09-30T11:23:20.529Z,1.20
2018-09-30T11:25:50.536Z,1.40
2018-09-30T11:28:20.430Z,1.97
2018-09-30T11:30:50.374Z,1.77
2018-09-30T11:33:20.418Z,1.60
2018-09-30T11:35:50.308Z,1.83
2018-09-30T11:38:20.261Z,1.60
2018-09-30T11:40:50.261Z,1.73
2018-09-30T11:43:20.243Z,1.40
2018-09-30T11:45:50.285Z,1.70
2018-09-30T11:48:20.234Z,1.67
2018-09-30T11:50:56.957Z,1.43
2018-09-30T11:53:27.159Z,1.77
2018-09-30T11:55:57.178Z,2.10
2018-09-30T11:58:27.167Z,2.50
2018-09-30T12:00:57.193Z,3.70
2018-09-30T12:03:27.163Z,1.50
2018-09-30T12:05:57.129Z,1.40
2018-09-30T12:08:27.049Z,2.00
2018-09-30T12:10:57.156Z,1.47
2018-09-30T12:13:27.393Z,1.73
2018-09-30T12:15:57.506Z,1.53
2018-09-30T12:18:27.477Z,1.37
2018-09-30T12:20:58.025Z,1.90
2018-09-30T12:23:28.162Z,1.40
2018-09-30T12:25:58.173Z,1.40
2018-09-30T12:28:28.160Z,1.87
2018-09-30T12:30:58.233Z,1.80
2018-09-30T12:33:28.207Z,1.70
2018-09-30T12:35:58.700Z,1.40
2018-09-30T12:38:35.485Z,1.73
2018-09-30T12:41:05.570Z,1.30
2018-09-30T12:43:35.605Z,1.57
2018-09-30T12:46:05.587Z,1.60
2018-09-30T12:48:35.621Z,1.40
2018-09-30T12:51:05.762Z,1.40
2018-09-30T12:53:35.877Z,1.63
2018-09-30T12:56:05.825Z,1.70
2018-09-30T12:58:35.774Z,1.80
2018-09-30T13:01:05.781Z,1.93
2018-09-30T13:03:35.785Z,1.57
2018-09-30T13:06:05.938Z,1.50
2018-09-30T13:08:35.908Z,1.30
2018-09-30T13:11:05.863Z,1.17
2018-09-30T13:13:35.818Z,1.77
2018-09-30T13:16:05.830Z,1.20
2018-09-30T13:18:35.820Z,1.40
2018-09-30T13:21:05.882Z,1.17
2018-09-30T13:23:35.926Z,1.50
2018-09-30T13:26:05.937Z,1.20
2018-09-30T13:28:35.906Z,2.07
2018-09-30T13:31:05.852Z,1.33
2018-09-30T13:33:35.791Z,1.43
2018-09-30T13:36:05.949Z,1.23
2018-09-30T13:38:36.020Z,1.57
2018-09-30T13:41:06.088Z,1.30
2018-09-30T13:43:35.915Z,0.97
2018-09-30T13:46:06.009Z,1.17
2018-09-30T13:48:35.849Z,2.00
2018-09-30T13:51:06.115Z,1.53
2018-09-30T13:53:35.997Z,1.23
2018-09-30T13:56:05.925Z,2.03
2018-09-30T13:58:35.851Z,1.40
2018-09-30T14:01:05.814Z,1.80
2018-09-30T14:03:35.764Z,1.13
2018-09-30T14:06:05.726Z,1.30
2018-09-30T14:08:35.715Z,1.10
2018-09-30T14:11:05.725Z,1.57
2018-09-30T14:13:35.881Z,1.20
2018-09-30T14:16:05.793Z,1.20
2018-09-30T14:18:35.739Z,1.53
2018-09-30T14:21:05.903Z,1.00
2018-09-30T14:23:36.327Z,1.20
2018-09-30T14:26:06.622Z,1.20
2018-09-30T14:28:36.571Z,1.27
2018-09-30T14:31:06.806Z,1.17
2018-09-30T14:33:36.823Z,1.63
2018-09-30T14:36:06.740Z,1.40
2018-09-30T14:38:36.733Z,1.23
2018-09-30T14:41:06.786Z,1.47
2018-09-30T14:43:36.894Z,1.40
2018-09-30T14:46:07.065Z,1.20
2018-09-30T14:48:37.606Z,1.50
2018-09-30T14:51:07.802Z,1.40
2018-09-30T14:53:37.859Z,1.43
2018-09-30T14:56:08.024Z,1.90
2018-09-30T14:58:37.975Z,1.60
2018-09-30T15:01:08.039Z,1.33
2018-09-30T15:03:38.275Z,1.40
2018-09-30T15:06:09.251Z,1.70
2018-09-30T15:08:39.317Z,1.50
2018-09-30T15:11:09.271Z,1.40
2018-09-30T15:13:39.239Z,1.57
2018-09-30T15:16:09.196Z,1.30
2018-09-30T15:18:39.185Z,1.33
2018-09-30T15:21:09.124Z,1.30
2018-09-30T15:23:39.464Z,1.30
2018-09-30T15:26:09.431Z,1.37
2018-09-30T15:28:39.399Z,1.40
2018-09-30T15:31:09.319Z,3.37
2018-09-30T15:33:39.304Z,5.33
2018-09-30T15:36:09.329Z,3.20
2018-09-30T15:38:39.335Z,1.63
2018-09-30T15:41:09.633Z,2.43
2018-09-30T15:43:39.598Z,1.60
2018-09-30T15:46:09.830Z,1.43
2018-09-30T15:48:39.751Z,1.80
2018-09-30T15:51:09.906Z,1.43
2018-09-30T15:53:39.888Z,1.60
2018-09-30T15:56:10.014Z,1.67
2018-09-30T15:58:39.990Z,1.57
2018-09-30T16:01:09.917Z,1.63
2018-09-30T16:03:39.962Z,1.53
2018-09-30T16:06:09.946Z,1.57
2018-09-30T16:08:39.960Z,1.43
2018-09-30T16:11:09.916Z,1.30
2018-09-30T16:13:39.848Z,1.60
2018-09-30T16:16:09.857Z,1.53
2018-09-30T16:18:39.781Z,1.47
2018-09-30T16:21:09.901Z,1.30
2018-09-30T16:23:39.798Z,1.40
2018-09-30T16:26:09.838Z,2.63
2018-09-30T16:28:39.977Z,1.73
2018-09-30T16:31:10.055Z,1.97
2018-09-30T16:33:39.954Z,2.20
2018-09-30T16:36:10.007Z,3.70
2018-09-30T16:38:39.983Z,3.10
2018-09-30T16:41:10.163Z,3.77
2018-09-30T16:43:40.176Z,3.83
2018-09-30T16:46:10.262Z,4.10
2018-09-30T16:48:40.320Z,4.50
2018-09-30T16:51:10.258Z,3.83
2018-09-30T16:53:40.294Z,4.20
2018-09-30T16:56:10.271Z,3.83
2018-09-30T16:58:40.219Z,4.03
2018-09-30T17:01:10.231Z,3.20
2018-09-30T17:03:40.223Z,3.20
2018-09-30T17:06:10.158Z,2.70
2018-09-30T17:08:40.178Z,3.00
2018-09-30T17:11:10.166Z,3.77
2018-09-30T17:13:40.154Z,3.47
2018-09-30T17:16:10.266Z,3.10
2018-09-30T17:18:40.083Z,2.83
2018-09-30T17:21:10.202Z,3.80
2018-09-30T17:23:40.245Z,4.00
2018-09-30T17:26:10.523Z,3.50
2018-09-30T17:28:40.502Z,3.80
2018-09-30T17:31:10.483Z,5.10
2018-09-30T17:33:40.515Z,39.17
2018-09-30T17:36:10.519Z,9.23
2018-09-30T17:38:40.554Z,4.17
2018-09-30T17:41:10.716Z,4.33
2018-09-30T17:43:40.712Z,4.90
2018-09-30T17:46:11.194Z,5.20
2018-09-30T17:48:41.234Z,7.70
2018-09-30T17:51:11.527Z,9.97
2018-09-30T17:53:41.430Z,10.27
2018-09-30T17:56:14.818Z,12.00
2018-09-30T17:58:44.906Z,12.07
2018-09-30T18:01:14.902Z,11.50
2018-09-30T18:03:44.884Z,9.33
2018-09-30T18:06:15.317Z,11.10
2018-09-30T18:08:45.458Z,8.60
2018-09-30T18:11:15.553Z,9.20
2018-09-30T18:13:45.483Z,8.70
2018-09-30T18:16:15.549Z,8.30
2018-09-30T18:18:45.506Z,8.87
2018-09-30T18:21:15.528Z,7.90
2018-09-30T18:23:45.440Z,7.63
2018-09-30T18:26:15.403Z,9.20
2018-09-30T18:28:45.350Z,9.80
2018-09-30T18:31:15.321Z,11.10
2018-09-30T18:33:45.302Z,11.13
2018-09-30T18:36:15.855Z,12.27
2018-09-30T18:38:45.787Z,11.80
2018-09-30T18:41:15.806Z,13.00
2018-09-30T18:43:45.792Z,12.07
2018-09-30T18:46:15.817Z,12.55
2018-09-30T18:48:45.747Z,13.40
2018-09-30T18:51:15.790Z,13.85
2018-09-30T18:53:45.723Z,13.33
2018-09-30T18:56:15.705Z,13.10
2018-09-30T18:58:45.671Z,13.90
2018-09-30T19:01:15.611Z,14.10
2018-09-30T19:03:45.719Z,12.63
2018-09-30T19:06:15.754Z,13.38
2018-09-30T19:08:45.678Z,11.85
2018-09-30T19:11:15.781Z,12.03
2018-09-30T19:13:45.784Z,12.50
2018-09-30T19:16:15.810Z,12.78
2018-09-30T19:18:45.765Z,12.33
2018-09-30T19:21:15.695Z,12.07
2018-09-30T19:23:45.782Z,13.90
2018-09-30T19:26:15.877Z,13.18
2018-09-30T19:28:45.795Z,12.70
2018-09-30T19:31:15.744Z,13.45
2018-09-30T19:33:45.795Z,12.93
2018-09-30T19:36:15.849Z,13.22
2018-09-30T19:38:45.801Z,14.40
2018-09-30T19:41:15.863Z,14.20
2018-09-30T19:43:45.888Z,16.15
2018-09-30T19:46:15.995Z,16.65
2018-09-30T19:48:45.989Z,16.45
2018-09-30T19:51:16.087Z,17.70
2018-09-30T19:53:46.024Z,17.27
2018-09-30T19:56:16.008Z,18.02
2018-09-30T19:58:45.926Z,19.85
2018-09-30T20:01:15.926Z,20.45
2018-09-30T20:03:45.896Z,19.92
2018-09-30T20:06:15.952Z,19.73
2018-09-30T20:08:45.985Z,18.27
2018-09-30T20:11:15.958Z,15.78
2018-09-30T20:13:45.936Z,13.70
2018-09-30T20:16:16.218Z,14.35
2018-09-30T20:18:46.345Z,13.45
2018-09-30T20:21:16.412Z,14.75
2018-09-30T20:23:46.439Z,19.67
2018-09-30T20:26:16.437Z,18.37
2018-09-30T20:28:46.592Z,20.23
2018-09-30T20:31:16.537Z,20.30
2018-09-30T20:33:46.535Z,18.87
2018-09-30T20:36:16.540Z,19.98
2018-09-30T20:38:46.528Z,18.10
2018-09-30T20:41:16.538Z,18.48
2018-09-30T20:43:46.577Z,18.65
2018-09-30T20:46:16.558Z,18.77
2018-09-30T20:48:46.581Z,19.98
2018-09-30T20:51:16.619Z,18.60
2018-09-30T20:53:46.559Z,18.82
2018-09-30T20:56:16.577Z,16.57
2018-09-30T20:58:46.630Z,18.80
2018-09-30T21:01:16.713Z,18.37
2018-09-30T21:03:46.854Z,19.17
2018-09-30T21:06:25.690Z,20.72
2018-09-30T21:08:55.903Z,19.92
2018-09-30T21:11:26.231Z,19.00
2018-09-30T21:13:56.602Z,19.95
2018-09-30T21:16:26.710Z,19.73
2018-09-30T21:18:56.769Z,20.95
2018-09-30T21:21:26.822Z,18.75
2018-09-30T21:23:56.805Z,18.40
2018-09-30T21:26:26.818Z,15.53
2018-09-30T21:28:56.754Z,16.97
2018-09-30T21:31:26.867Z,17.77
2018-09-30T21:33:56.839Z,20.32
2018-09-30T21:36:26.807Z,17.77
2018-09-30T21:38:56.794Z,19.55
2018-09-30T21:41:26.961Z,18.05
2018-09-30T21:43:57.375Z,16.12
2018-09-30T21:46:27.366Z,16.10
2018-09-30T21:48:57.378Z,13.53
2018-09-30T21:51:27.333Z,14.50
2018-09-30T21:53:57.329Z,14.83
2018-09-30T21:56:27.385Z,18.45
2018-09-30T21:58:57.467Z,19.37
2018-09-30T22:01:27.511Z,18.30
2018-09-30T22:03:57.403Z,18.30
2018-09-30T22:06:27.424Z,18.30
2018-09-30T22:08:57.394Z,17.10
2018-09-30T22:11:27.367Z,15.70
2018-09-30T22:13:57.330Z,16.05
2018-09-30T22:16:27.382Z,15.05
2018-09-30T22:18:57.320Z,15.08
2018-09-30T22:21:27.287Z,15.15
2018-09-30T22:23:57.285Z,14.55
2018-09-30T22:26:27.243Z,16.02
2018-09-30T22:28:57.359Z,15.35
2018-09-30T22:31:27.286Z,16.55
2018-09-30T22:33:57.206Z,17.73
2018-09-30T22:36:27.131Z,17.52
2018-09-30T22:38:57.113Z,17.57
2018-09-30T22:41:27.112Z,18.27
2018-09-30T22:43:57.069Z,18.00
2018-09-30T22:46:27.049Z,18.10
2018-09-30T22:48:57.085Z,16.85
2018-09-30T22:51:27.204Z,16.80
2018-09-30T22:53:57.179Z,17.55
2018-09-30T22:56:27.134Z,17.35
2018-09-30T22:58:57.274Z,16.87
2018-09-30T23:01:27.386Z,17.17
2018-09-30T23:03:57.487Z,16.77
2018-09-30T23:06:27.476Z,17.60
2018-09-30T23:08:57.396Z,17.25
2018-09-30T23:11:27.560Z,17.95
2018-09-30T23:13:57.586Z,17.55
2018-09-30T23:16:27.897Z,18.02
2018-09-30T23:18:57.902Z,19.32
2018-09-30T23:21:27.965Z,17.02
2018-09-30T23:23:57.933Z,18.00
2018-09-30T23:26:28.005Z,18.27
2018-09-30T23:28:57.994Z,18.70
2018-09-30T23:31:27.963Z,17.60
2018-09-30T23:33:57.942Z,17.65
2018-09-30T23:36:28.132Z,17.00
2018-09-30T23:38:58.547Z,17.60
2018-09-30T23:41:28.633Z,16.62
2018-09-30T23:43:58.613Z,17.07
2018-09-30T23:46:28.607Z,16.12
2018-09-30T23:48:58.715Z,16.73
2018-09-30T23:51:28.654Z,16.65
2018-09-30T23:53:58.590Z,15.83
2018-09-30T23:56:28.579Z,16.55
2018-09-30T23:58:58.501Z,16.50
